Time;durP1;ratioP1;P1;durP2;ratioP2;P2;SDS_P1;SDS_P2;PMS_P1;PMS_P2;Temp;Humidity;BMP_temperature;BMP_pressure;BME280_temperature;BME280_humidity;BME280_pressure;Samples;Min_cycle;Max_cycle;Signal;HPM_P1;HPM_P2
2022/02/22 00:00:37;;;;;;;20.80;8.30;;;;;;;2.51;67.75;97601.46;105819;1280;108271;-67
2022/02/22 00:03:15;;;;;;;25.40;9.20;;;;;;;2.50;67.55;97603.79;105799;1280;99346;-69
2022/02/22 00:05:44;;;;;;;24.40;9.10;;;;;;;2.48;67.49;97602.17;105780;1279;98368;-69
2022/02/22 00:08:12;;;;;;;21.80;8.60;;;;;;;2.48;67.45;97598.70;105756;1281;112669;-70
2022/02/22 00:10:43;;;;;;;20.90;8.10;;;;;;;2.47;67.52;97597.52;105779;1281;99356;-70
2022/02/22 00:13:11;;;;;;;23.10;8.20;;;;;;;2.47;67.37;97598.61;105770;1281;108633;-69
2022/02/22 00:15:41;;;;;;;24.00;8.10;;;;;;;2.46;67.21;97598.83;105700;1281;99255;-69
2022/02/22 00:18:10;;;;;;;22.80;8.30;;;;;;;2.45;67.60;97602.39;105795;1281;99253;-69
2022/02/22 00:20:38;;;;;;;22.40;7.70;;;;;;;2.45;67.47;97602.94;105766;1281;113359;-69
2022/02/22 00:23:07;;;;;;;22.00;8.50;;;;;;;2.44;67.21;97603.17;105692;1281;99118;-69
2022/02/22 00:25:38;;;;;;;23.60;8.40;;;;;;;2.42;67.40;97602.95;105721;1281;107716;-69
2022/02/22 00:28:06;;;;;;;21.80;8.20;;;;;;;2.39;67.64;97594.71;105779;1281;99318;-69
2022/02/22 00:30:35;;;;;;;23.90;8.00;;;;;;;2.38;67.48;97598.45;105803;1281;99326;-69
2022/02/22 00:33:04;;;;;;;23.20;8.40;;;;;;;2.36;67.01;97601.88;105782;1281;113383;-70
2022/02/22 00:35:31;;;;;;;22.30;8.20;;;;;;;2.36;67.36;97603.50;105764;1281;99431;-69
2022/02/22 00:37:59;;;;;;;22.70;8.20;;;;;;;2.35;67.15;97602.16;105765;1281;108423;-69
2022/02/22 00:40:27;;;;;;;21.80;8.30;;;;;;;2.31;67.27;97600.84;105764;1281;98411;-69
2022/02/22 00:42:55;;;;;;;23.40;8.20;;;;;;;2.28;66.99;97600.63;105790;1281;99319;-70
2022/02/22 00:45:23;;;;;;;19.40;6.50;;;;;;;2.27;67.07;97602.46;105774;1281;112794;-69
2022/02/22 00:47:53;;;;;;;21.90;7.70;;;;;;;2.25;67.00;97604.00;105699;1281;97769;-69
2022/02/22 00:50:22;;;;;;;20.10;7.10;;;;;;;2.23;66.89;97605.50;105572;1281;108338;-71
2022/02/22 00:52:49;;;;;;;25.40;7.60;;;;;;;2.21;66.81;97602.45;105544;1281;99217;-70
2022/02/22 00:55:17;;;;;;;20.60;7.30;;;;;;;2.19;66.84;97605.76;105594;1281;99245;-69
2022/02/22 00:57:45;;;;;;;21.90;7.60;;;;;;;2.17;66.82;97603.38;105532;1281;113322;-69
2022/02/22 01:00:14;;;;;;;20.20;7.20;;;;;;;2.17;66.81;97602.04;105569;1281;99362;-70
2022/02/22 01:02:42;;;;;;;20.70;7.20;;;;;;;2.16;66.95;97604.53;105829;1281;107965;-69
2022/02/22 01:05:11;;;;;;;21.70;6.90;;;;;;;2.18;67.12;97604.80;105644;1281;99317;-71
2022/02/22 01:07:39;;;;;;;20.20;7.10;;;;;;;2.18;66.83;97603.01;105794;1281;99243;-69
2022/02/22 01:10:08;;;;;;;20.80;6.90;;;;;;;2.18;66.62;97602.29;105772;1280;112824;-69
2022/02/22 01:12:38;;;;;;;23.30;8.20;;;;;;;2.18;66.80;97605.45;105819;1280;99255;-69
2022/02/22 01:15:07;;;;;;;19.80;7.50;;;;;;;2.19;66.92;97605.89;105767;1281;107547;-70
2022/02/22 01:17:35;;;;;;;19.50;5.90;;;;;;;2.21;66.78;97610.17;105792;1281;97685;-70
2022/02/22 01:20:08;;;;;;;19.50;6.80;;;;;;;2.20;66.66;97605.83;105822;1281;99310;-69
2022/02/22 01:22:37;;;;;;;23.60;6.20;;;;;;;2.19;66.91;97603.11;105688;1281;113379;-70
2022/02/22 01:25:09;;;;;;;19.40;6.70;;;;;;;2.17;66.85;97605.16;105730;1281;99246;-70
2022/02/22 01:27:39;;;;;;;18.10;6.40;;;;;;;2.16;66.60;97605.22;105853;1281;107694;-69
2022/02/22 01:30:08;;;;;;;20.20;7.20;;;;;;;2.16;66.63;97605.42;105850;1281;99262;-69
2022/02/22 01:32:38;;;;;;;20.30;7.20;;;;;;;2.15;66.61;97608.11;105825;1280;99183;-69
2022/02/22 01:35:08;;;;;;;18.10;6.10;;;;;;;2.16;66.61;97612.24;105820;1280;111298;-69
2022/02/22 01:37:38;;;;;;;18.60;5.90;;;;;;;2.16;66.58;97617.30;105817;1281;97720;-69
2022/02/22 01:40:09;;;;;;;20.90;7.00;;;;;;;2.16;66.46;97620.63;105851;1280;108235;-69
2022/02/22 01:42:37;;;;;;;18.60;6.60;;;;;;;2.12;66.53;97622.94;105671;1281;99305;-69
2022/02/22 01:45:09;;;;;;;17.80;5.70;;;;;;;2.09;66.37;97626.98;105780;1281;99359;-69
2022/02/22 01:47:37;;;;;;;19.50;6.90;;;;;;;2.05;66.46;97628.64;105766;1281;112675;-70
2022/02/22 01:50:08;;;;;;;19.40;6.80;;;;;;;2.02;66.33;97628.81;105813;1281;99210;-70
2022/02/22 01:52:37;;;;;;;23.90;7.20;;;;;;;1.99;66.62;97621.98;105749;1281;107846;-69
2022/02/22 01:55:08;;;;;;;19.80;7.00;;;;;;;1.96;66.31;97620.08;105848;1280;96663;-69
2022/02/22 01:57:37;;;;;;;17.90;6.60;;;;;;;1.93;66.14;97626.55;105887;1281;99223;-70
2022/02/22 02:00:10;;;;;;;18.50;6.90;;;;;;;1.91;66.42;97627.16;105771;1281;112777;-69
2022/02/22 02:02:40;;;;;;;20.00;6.90;;;;;;;1.91;66.43;97627.73;105853;1281;99238;-71
2022/02/22 02:05:09;;;;;;;19.50;6.70;;;;;;;1.90;66.32;97627.22;105793;1281;108545;-70
2022/02/22 02:07:37;;;;;;;20.70;7.20;;;;;;;1.91;66.34;97628.20;105809;1281;99320;-70
2022/02/22 02:10:06;;;;;;;20.10;7.00;;;;;;;1.92;66.37;97629.77;105845;1280;99220;-69
2022/02/22 02:12:40;;;;;;;17.80;6.60;;;;;;;1.91;66.37;97624.91;105792;1281;113407;-70
2022/02/22 02:15:10;;;;;;;20.10;6.50;;;;;;;1.92;66.37;97625.35;105806;1281;99297;-69
2022/02/22 02:17:40;;;;;;;18.20;6.60;;;;;;;1.94;66.29;97629.29;105795;1281;107728;-69
2022/02/22 02:20:11;;;;;;;19.60;6.30;;;;;;;1.95;66.46;97623.27;105804;1280;97782;-69
2022/02/22 02:22:40;;;;;;;18.50;6.80;;;;;;;1.98;66.27;97623.80;105888;1281;96681;-69
2022/02/22 02:25:11;;;;;;;17.00;5.80;;;;;;;1.99;66.22;97619.56;105856;1281;112851;-69
2022/02/22 02:27:42;;;;;;;19.70;6.00;;;;;;;2.00;66.22;97622.84;105849;1281;97675;-69
2022/02/22 02:30:12;;;;;;;17.80;6.20;;;;;;;2.00;66.11;97617.77;105826;1280;109030;-70
2022/02/22 02:32:40;;;;;;;19.30;6.30;;;;;;;2.01;66.19;97617.33;105826;1279;99356;-69
2022/02/22 02:35:10;;;;;;;21.20;7.30;;;;;;;2.01;66.24;97620.29;105813;1280;99228;-70
2022/02/22 02:37:40;;;;;;;19.60;6.20;;;;;;;2.01;66.26;97626.08;105891;1280;112843;-68
2022/02/22 02:40:28;;;;;;;19.80;5.90;;;;;;;1.99;66.13;97633.37;105810;1281;99266;-69
2022/02/22 02:42:56;;;;;;;19.90;6.40;;;;;;;1.98;66.15;97638.14;105810;1281;107497;-69
2022/02/22 02:45:26;;;;;;;20.50;5.70;;;;;;;1.99;66.35;97638.98;105829;1280;99291;-69
2022/02/22 02:47:54;;;;;;;17.90;6.20;;;;;;;1.99;66.13;97639.83;105792;1281;99238;-70
2022/02/22 02:50:26;;;;;;;19.00;6.30;;;;;;;1.99;66.02;97637.73;105783;1280;113469;-68
2022/02/22 02:52:53;;;;;;;18.60;6.20;;;;;;;1.99;65.99;97636.88;105783;1280;99317;-71
2022/02/22 02:55:21;;;;;;;18.20;6.80;;;;;;;1.98;66.02;97634.79;105795;1281;108640;-68
2022/02/22 02:57:51;;;;;;;20.90;6.60;;;;;;;1.99;65.86;97629.19;105803;1279;96667;-69
2022/02/22 03:00:21;;;;;;;20.50;6.50;;;;;;;2.00;66.19;97632.11;105837;1280;99314;-72
2022/02/22 03:02:48;;;;;;;17.70;6.20;;;;;;;2.00;66.24;97634.16;105820;1280;112734;-70
2022/02/22 03:05:18;;;;;;;20.70;6.30;;;;;;;2.01;65.88;97635.88;105805;1280;99365;-72
2022/02/22 03:07:46;;;;;;;17.10;5.80;;;;;;;2.01;66.11;97644.41;105813;1280;107717;-70
2022/02/22 03:10:13;;;;;;;17.90;6.10;;;;;;;2.01;66.10;97644.25;105705;1281;99397;-70
2022/02/22 03:12:41;;;;;;;18.30;6.40;;;;;;;2.02;66.09;97645.77;105767;1280;96989;-70
2022/02/22 03:15:10;;;;;;;19.30;6.50;;;;;;;2.03;66.05;97645.89;105820;1280;112669;-70
2022/02/22 03:17:39;;;;;;;20.50;6.30;;;;;;;2.02;65.83;97645.25;105785;1279;99309;-69
2022/02/22 03:20:09;;;;;;;20.60;7.40;;;;;;;2.01;66.06;97645.13;105773;1279;108340;-68
2022/02/22 03:22:43;;;;;;;16.80;5.70;;;;;;;2.00;65.81;97648.34;105784;1279;99221;-68
2022/02/22 03:25:13;;;;;;;17.60;5.70;;;;;;;1.99;65.59;97656.06;105831;1279;99588;-70
2022/02/22 03:27:41;;;;;;;22.60;6.50;;;;;;;2.00;65.66;97660.79;105790;1279;112360;-69
2022/02/22 03:30:10;;;;;;;17.00;5.70;;;;;;;2.00;65.75;97660.23;105860;1280;99275;-68
2022/02/22 03:32:39;;;;;;;18.60;5.70;;;;;;;2.00;65.73;97657.77;105814;1279;106540;-69
2022/02/22 03:35:07;;;;;;;18.30;6.10;;;;;;;2.00;65.77;97662.64;104426;1279;1890857;-69
2022/02/22 03:37:38;;;;;;;17.90;6.50;;;;;;;2.01;65.89;97666.80;105825;1279;99322;-70
2022/02/22 03:40:09;;;;;;;16.90;6.30;;;;;;;2.02;65.74;97672.54;105788;1280;113653;-70
2022/02/22 03:42:42;;;;;;;18.00;6.70;;;;;;;2.03;65.90;97678.02;105776;1279;99667;-68
2022/02/22 03:45:13;;;;;;;18.90;6.80;;;;;;;2.05;65.68;97681.41;105784;1279;108848;-66
2022/02/22 03:47:42;;;;;;;21.20;6.50;;;;;;;2.07;65.94;97682.19;105806;1279;99103;-67
2022/02/22 03:50:14;;;;;;;19.10;6.00;;;;;;;2.07;65.91;97681.79;105798;1279;99342;-69
2022/02/22 03:52:44;;;;;;;20.30;6.60;;;;;;;2.07;65.74;97683.55;105692;1280;112772;-67
2022/02/22 03:55:15;;;;;;;18.60;6.20;;;;;;;2.07;65.85;97685.82;105882;1279;99305;-68
2022/02/22 03:57:44;;;;;;;21.20;6.70;;;;;;;2.09;65.81;97689.43;105839;1279;108271;-68
2022/02/22 04:00:21;;;;;;;18.10;5.90;;;;;;;2.08;65.88;97693.68;105764;1279;99413;-68
2022/02/22 04:02:51;;;;;;;16.80;5.70;;;;;;;2.07;65.86;97692.33;105818;1279;99308;-69
2022/02/22 04:05:21;;;;;;;15.40;5.40;;;;;;;2.09;65.93;97696.77;105753;1279;113266;-70
2022/02/22 04:07:51;;;;;;;18.90;6.40;;;;;;;2.10;65.86;97697.21;105811;1279;97957;-70
2022/02/22 04:10:19;;;;;;;18.20;5.60;;;;;;;2.12;65.78;97703.39;105773;1279;109015;-71
2022/02/22 04:12:49;;;;;;;17.20;5.30;;;;;;;2.14;65.68;97702.40;105875;1279;99366;-68
2022/02/22 04:15:18;;;;;;;16.10;5.30;;;;;;;2.14;65.71;97701.51;105804;1279;99221;-69
2022/02/22 04:17:50;;;;;;;17.20;5.80;;;;;;;2.15;65.71;97703.55;105807;1279;113468;-69
2022/02/22 04:20:20;;;;;;;19.60;6.20;;;;;;;2.16;65.88;97705.58;105813;1279;99228;-69
2022/02/22 04:22:49;;;;;;;15.80;5.00;;;;;;;2.18;65.71;97714.27;105779;1279;108394;-70
2022/02/22 04:25:20;;;;;;;17.50;5.30;;;;;;;2.23;65.68;97714.14;105794;1279;96648;-70
2022/02/22 04:27:52;;;;;;;16.30;5.40;;;;;;;2.27;66.04;97718.96;105802;1279;96551;-69
2022/02/22 04:30:21;;;;;;;14.30;4.80;;;;;;;2.32;65.86;97720.73;105762;1279;113392;-70
2022/02/22 04:32:52;;;;;;;17.50;5.80;;;;;;;2.38;65.72;97723.34;105844;1279;99316;-69
2022/02/22 04:35:20;;;;;;;14.60;5.40;;;;;;;2.44;65.65;97724.25;105734;1279;108206;-68
2022/02/22 04:37:48;;;;;;;18.00;5.90;;;;;;;2.50;65.67;97726.48;105747;1279;96869;-69
2022/02/22 04:40:18;;;;;;;15.40;5.00;;;;;;;2.56;65.86;97735.93;105771;1279;99351;-70
2022/02/22 04:42:48;;;;;;;18.70;6.30;;;;;;;2.62;65.78;97738.73;105820;1279;113315;-72
2022/02/22 04:45:19;;;;;;;16.80;5.70;;;;;;;2.67;65.64;97744.33;105857;1279;99265;-70
2022/02/22 04:47:50;;;;;;;16.70;4.80;;;;;;;2.72;65.59;97746.15;105918;1279;108346;-69
2022/02/22 04:50:21;;;;;;;16.90;5.20;;;;;;;2.76;65.46;97749.05;105863;1277;96695;-69
2022/02/22 04:52:49;;;;;;;13.70;4.50;;;;;;;2.82;65.43;97755.00;105704;1279;99350;-70
2022/02/22 04:55:19;;;;;;;19.70;5.60;;;;;;;2.86;65.75;97753.50;105639;1281;113057;-69
2022/02/22 04:57:47;;;;;;;14.30;4.90;;;;;;;2.90;65.79;97761.00;105712;1280;99226;-70
2022/02/22 05:00:17;;;;;;;13.90;4.50;;;;;;;2.92;65.45;97762.59;105663;1281;107712;-70
2022/02/22 05:02:45;;;;;;;15.10;5.10;;;;;;;2.96;65.73;97769.73;105772;1279;99317;-69
2022/02/22 05:05:14;;;;;;;16.60;4.50;;;;;;;2.99;65.59;97772.15;105833;1279;99266;-70
2022/02/22 05:07:42;;;;;;;14.70;4.60;;;;;;;3.04;65.49;97778.71;105759;1279;113122;-69
2022/02/22 05:10:11;;;;;;;14.60;4.30;;;;;;;3.07;65.50;97784.09;105803;1279;99286;-68
2022/02/22 05:12:39;;;;;;;12.50;3.60;;;;;;;3.10;65.65;97791.58;105806;1279;108144;-68
2022/02/22 05:15:09;;;;;;;9.60;3.70;;;;;;;3.15;65.30;97794.61;105817;1279;99969;-69
2022/02/22 05:17:39;;;;;;;8.70;3.40;;;;;;;3.20;65.62;97794.02;105786;1279;97821;-70
2022/02/22 05:20:09;;;;;;;14.80;3.80;;;;;;;3.24;65.48;97795.48;105777;1279;113391;-67
2022/02/22 05:22:45;;;;;;;10.00;3.10;;;;;;;3.28;65.83;97804.67;105761;1279;98390;-68
2022/02/22 05:25:15;;;;;;;9.60;3.00;;;;;;;3.33;65.86;97808.26;105792;1280;107587;-68
2022/02/22 05:27:46;;;;;;;12.30;2.90;;;;;;;3.37;65.76;97811.83;105785;1279;99445;-68
2022/02/22 05:30:17;;;;;;;10.30;3.10;;;;;;;3.41;65.42;97818.77;105798;1279;99204;-69
2022/02/22 05:32:46;;;;;;;12.50;3.50;;;;;;;3.44;65.51;97821.58;105748;1279;112895;-68
2022/02/22 05:35:15;;;;;;;9.20;3.30;;;;;;;3.48;65.54;97828.70;105734;1279;99242;-69
2022/02/22 05:37:44;;;;;;;11.20;3.40;;;;;;;3.50;65.77;97838.65;105789;1279;108482;-69
2022/02/22 05:40:13;;;;;;;11.40;3.30;;;;;;;3.55;65.56;97841.56;105783;1279;99321;-69
2022/02/22 05:42:41;;;;;;;13.80;4.40;;;;;;;3.60;65.71;97851.20;105860;1279;99295;-69
2022/02/22 05:45:13;;;;;;;14.10;4.30;;;;;;;3.66;65.36;97859.23;105752;1279;112635;-69
2022/02/22 05:47:42;;;;;;;15.00;3.80;;;;;;;3.73;65.49;97860.04;105681;1279;96942;-69
2022/02/22 05:50:13;;;;;;;11.30;3.40;;;;;;;3.78;65.73;97866.73;105797;1279;108377;-71
2022/02/22 05:52:42;;;;;;;11.80;3.60;;;;;;;3.84;65.26;97868.63;105740;1279;99246;-70
2022/02/22 05:55:12;;;;;;;10.80;3.40;;;;;;;3.90;65.45;97871.08;105781;1281;99275;-70
2022/02/22 05:57:41;;;;;;;10.30;3.10;;;;;;;3.96;65.52;97874.38;105837;1278;115060;-69
2022/02/22 06:00:11;;;;;;;12.20;3.40;;;;;;;4.01;65.53;97878.61;105824;1280;100312;-69
2022/02/22 06:02:39;;;;;;;14.50;4.20;;;;;;;4.05;65.36;97880.31;105831;1279;107517;-70
2022/02/22 06:05:08;;;;;;;10.60;4.00;;;;;;;4.07;65.39;97883.80;105876;1279;99247;-69
2022/02/22 06:07:37;;;;;;;15.20;3.70;;;;;;;4.10;65.18;97891.70;105892;1279;96566;-69
2022/02/22 06:10:07;;;;;;;12.10;3.50;;;;;;;4.12;65.10;97899.11;105844;1279;113559;-69
2022/02/22 06:12:35;;;;;;;11.40;3.50;;;;;;;4.14;65.27;97896.16;105831;1280;99325;-68
2022/02/22 06:15:05;;;;;;;11.10;3.50;;;;;;;4.16;65.06;97903.44;105858;1279;108312;-71
2022/02/22 06:17:44;;;;;;;11.90;3.90;;;;;;;4.18;65.14;97904.70;105844;1279;99339;-69
2022/02/22 06:20:13;;;;;;;12.30;4.10;;;;;;;4.21;65.28;97910.52;105795;1279;99275;-69
2022/02/22 06:22:42;;;;;;;13.50;3.90;;;;;;;4.21;65.38;97916.79;105651;1279;113779;-72
2022/02/22 06:25:11;;;;;;;15.30;4.00;;;;;;;4.23;64.96;97924.23;105743;1279;99266;-70
2022/02/22 06:27:54;;;;;;;12.10;3.90;;;;;;;4.24;65.24;97928.52;105713;1279;108315;-70
2022/02/22 06:30:26;;;;;;;13.30;4.00;;;;;;;4.26;65.22;97928.96;105688;1279;99257;-71
2022/02/22 06:32:54;;;;;;;13.40;3.90;;;;;;;4.26;65.09;97936.46;105769;1279;99345;-69
2022/02/22 06:35:26;;;;;;;12.00;4.10;;;;;;;4.26;65.32;97934.89;105820;1280;112773;-67
2022/02/22 06:37:55;;;;;;;12.80;4.80;;;;;;;4.26;65.18;97936.63;105865;1279;97842;-69
2022/02/22 06:40:30;;;;;;;13.90;4.20;;;;;;;4.25;65.20;97941.42;105829;1279;107845;-70
2022/02/22 06:42:58;;;;;;;12.60;4.00;;;;;;;4.24;65.31;97942.39;105768;1279;99244;-69
2022/02/22 06:45:33;;;;;;;13.80;3.70;;;;;;;4.22;65.20;97948.14;105814;1279;99959;-70
2022/02/22 06:48:03;;;;;;;9.60;3.30;;;;;;;4.22;65.06;97958.54;105843;1279;113384;-70
2022/02/22 06:50:32;;;;;;;12.10;3.90;;;;;;;4.20;65.25;97964.61;105780;1279;97810;-71
2022/02/22 06:53:03;;;;;;;11.50;3.60;;;;;;;4.19;65.20;97967.84;105822;1279;107738;-71
2022/02/22 06:55:31;;;;;;;13.80;3.90;;;;;;;4.21;65.14;97982.83;105745;1279;99211;-71
2022/02/22 06:58:03;;;;;;;11.00;3.50;;;;;;;4.20;65.27;97989.02;105808;1279;99103;-69
2022/02/22 07:00:33;;;;;;;9.80;3.30;;;;;;;4.19;65.03;97998.52;105773;1281;112165;-69
2022/02/22 07:03:04;;;;;;;10.30;3.60;;;;;;;4.16;65.32;98003.24;105827;1280;99275;-67
2022/02/22 07:05:35;;;;;;;10.10;3.40;;;;;;;4.15;65.38;98012.25;105842;1279;107805;-69
2022/02/22 07:08:04;;;;;;;9.70;3.40;;;;;;;4.14;65.24;98018.80;105764;1279;99378;-70
2022/02/22 07:10:37;;;;;;;5.80;2.50;;;;;;;4.12;65.31;98026.00;105738;1279;99233;-71
2022/02/22 07:13:05;;;;;;;6.70;3.20;;;;;;;4.07;65.35;98033.88;105674;1281;112738;-70
2022/02/22 07:15:38;;;;;;;7.60;2.70;;;;;;;4.02;65.30;98039.57;105734;1279;99846;-70
2022/02/22 07:18:13;;;;;;;10.10;3.10;;;;;;;3.96;65.40;98041.87;105660;1280;107864;-72
2022/02/22 07:20:42;;;;;;;8.60;2.60;;;;;;;3.90;65.71;98047.33;105717;1279;99390;-69
2022/02/22 07:23:11;;;;;;;7.40;3.10;;;;;;;3.82;65.54;98052.89;105751;1279;96650;-69
2022/02/22 07:25:39;;;;;;;7.90;3.10;;;;;;;3.78;65.44;98058.44;105756;1279;112941;-69
2022/02/22 07:28:07;;;;;;;4.40;2.70;;;;;;;3.76;66.03;98062.91;105701;1281;97857;-68
2022/02/22 07:30:39;;;;;;;6.20;3.20;;;;;;;3.75;65.74;98069.80;105782;1279;110336;-69
2022/02/22 07:33:10;;;;;;;6.80;2.80;;;;;;;3.77;65.63;98071.63;105760;1279;97654;-69
2022/02/22 07:35:42;;;;;;;4.00;2.50;;;;;;;3.82;65.88;98076.23;105788;1279;99329;-69
2022/02/22 07:38:10;;;;;;;6.70;3.90;;;;;;;3.90;65.64;98069.45;105732;1279;113450;-69
2022/02/22 07:40:40;;;;;;;5.20;2.70;;;;;;;3.99;65.76;98069.93;105735;1279;96568;-69
2022/02/22 07:43:10;;;;;;;8.40;3.00;;;;;;;4.08;65.77;98073.23;105696;1279;106422;-69
2022/02/22 07:45:37;;;;;;;7.60;2.90;;;;;;;4.11;65.73;98079.54;105730;1279;99326;-69
2022/02/22 07:48:05;;;;;;;9.20;3.40;;;;;;;4.17;65.76;98078.69;105820;1279;99146;-70
2022/02/22 07:50:35;;;;;;;9.00;2.80;;;;;;;4.22;65.65;98084.49;105773;1280;115568;-70
2022/02/22 07:53:04;;;;;;;7.40;2.70;;;;;;;4.20;65.60;98086.89;105663;1281;96606;-70
2022/02/22 07:55:31;;;;;;;7.80;2.60;;;;;;;4.17;65.45;98087.63;105529;1281;108376;-68
2022/02/22 07:57:59;;;;;;;6.70;2.60;;;;;;;4.19;65.54;98096.42;105844;1279;99361;-71
2022/02/22 08:00:27;;;;;;;7.50;2.60;;;;;;;4.23;65.31;98102.87;105794;1279;98349;-70
2022/02/22 08:02:55;;;;;;;8.40;3.00;;;;;;;4.27;65.35;98104.55;105735;1280;114178;-69
2022/02/22 08:05:29;;;;;;;8.50;2.90;;;;;;;4.30;65.58;98103.50;105772;1279;99263;-73
2022/02/22 08:08:05;;;;;;;8.90;3.30;;;;;;;4.34;65.25;98107.81;105651;1279;107758;-71
2022/02/22 08:10:33;;;;;;;7.40;2.40;;;;;;;4.31;65.14;98112.69;105646;1279;99224;-73
2022/02/22 08:13:01;;;;;;;5.80;2.70;;;;;;;4.29;65.06;98115.47;105745;1279;96764;-70
2022/02/22 08:15:28;;;;;;;9.00;3.00;;;;;;;4.30;65.21;98114.19;105611;1281;112915;-69
2022/02/22 08:17:56;;;;;;;7.90;2.70;;;;;;;4.37;65.21;98115.13;105598;1279;97920;-70
2022/02/22 08:20:24;;;;;;;9.40;3.70;;;;;;;4.46;65.42;98121.30;105540;1279;108490;-71
2022/02/22 08:22:53;;;;;;;7.90;2.90;;;;;;;4.52;65.39;98127.52;105747;1279;99238;-70
2022/02/22 08:25:22;;;;;;;9.90;2.90;;;;;;;4.55;64.79;98131.75;105758;1279;99382;-69
2022/02/22 08:27:51;;;;;;;7.10;2.30;;;;;;;4.58;65.10;98139.83;105552;1279;112815;-69
2022/02/22 08:30:19;;;;;;;7.20;2.50;;;;;;;4.59;65.09;98139.77;105740;1279;99231;-70
2022/02/22 08:32:48;;;;;;;7.80;2.40;;;;;;;4.62;65.05;98145.53;105852;1279;107676;-69
2022/02/22 08:35:17;;;;;;;8.20;3.00;;;;;;;4.65;64.98;98149.75;105746;1279;99356;-71
2022/02/22 08:37:46;;;;;;;10.30;2.60;;;;;;;4.72;65.33;98154.25;105796;1279;97284;-72
2022/02/22 08:40:14;;;;;;;9.20;2.60;;;;;;;4.77;64.85;98158.65;105715;1279;112776;-71
2022/02/22 08:42:42;;;;;;;6.90;2.50;;;;;;;4.74;64.35;98160.96;105735;1279;99347;-70
2022/02/22 08:45:24;;;;;;;9.10;2.80;;;;;;;4.72;64.81;98163.02;105702;1279;108353;-69
2022/02/22 08:47:54;;;;;;;10.90;2.60;;;;;;;4.72;64.89;98167.92;105758;1279;99795;-70
2022/02/22 08:50:24;;;;;;;11.90;3.10;;;;;;;4.70;64.75;98171.54;105728;1279;99269;-69
2022/02/22 08:52:53;;;;;;;8.90;3.40;;;;;;;4.73;65.02;98178.54;105687;1279;114823;-71
2022/02/22 08:55:22;;;;;;;8.90;3.00;;;;;;;4.76;64.54;98179.95;105686;1279;100046;-69
2022/02/22 08:57:51;;;;;;;10.10;2.80;;;;;;;4.78;64.81;98176.85;105678;1278;108390;-70
2022/02/22 09:00:19;;;;;;;8.80;2.80;;;;;;;4.85;65.08;98179.42;105732;1279;99290;-70
2022/02/22 09:02:53;;;;;;;10.70;3.10;;;;;;;4.96;64.61;98183.51;105895;1278;99239;-70
2022/02/22 09:05:22;;;;;;;10.10;2.70;;;;;;;5.01;64.63;98183.52;105842;1277;112529;-70
2022/02/22 09:07:51;;;;;;;11.40;2.60;;;;;;;5.04;64.56;98185.75;105790;1279;96658;-72
2022/02/22 09:10:21;;;;;;;9.80;3.00;;;;;;;5.07;64.62;98191.06;105761;1278;107788;-67
2022/02/22 09:12:50;;;;;;;9.20;2.70;;;;;;;5.12;64.62;98190.33;105706;1280;99335;-70
2022/02/22 09:15:22;;;;;;;9.20;2.60;;;;;;;5.18;64.09;98191.74;105527;1281;99252;-68
2022/02/22 09:17:52;;;;;;;9.40;2.90;;;;;;;5.22;64.05;98203.30;105790;1279;113949;-68
2022/02/22 09:20:22;;;;;;;10.90;3.00;;;;;;;5.23;64.39;98209.19;105564;1279;99435;-67
2022/02/22 09:22:53;;;;;;;8.80;2.70;;;;;;;5.18;64.10;98209.14;105670;1279;108412;-70
2022/02/22 09:25:24;;;;;;;12.30;3.20;;;;;;;5.14;64.01;98212.52;105782;1279;99195;-69
2022/02/22 09:27:52;;;;;;;11.30;3.00;;;;;;;5.09;64.04;98217.27;105768;1279;99208;-70
2022/02/22 09:30:22;;;;;;;9.40;3.10;;;;;;;5.07;64.08;98220.74;105749;1279;112650;-69
2022/02/22 09:32:50;;;;;;;10.90;3.10;;;;;;;5.06;64.21;98221.86;105806;1279;99328;-69
2022/02/22 09:35:26;;;;;;;10.90;3.20;;;;;;;5.05;64.20;98219.95;105831;1279;108501;-70
2022/02/22 09:37:57;;;;;;;11.40;3.10;;;;;;;5.12;64.37;98224.48;105835;1279;99313;-67
2022/02/22 09:40:28;;;;;;;9.40;3.20;;;;;;;5.18;64.43;98228.45;105721;1279;98284;-69
2022/02/22 09:42:56;;;;;;;11.60;2.80;;;;;;;5.23;64.24;98230.64;105781;1279;112866;-70
2022/02/22 09:45:25;;;;;;;13.20;3.70;;;;;;;5.19;64.08;98232.61;105827;1279;99353;-71
2022/02/22 09:47:58;;;;;;;12.70;3.60;;;;;;;5.14;64.20;98236.63;105829;1279;108350;-70
2022/02/22 09:50:32;;;;;;;9.30;3.20;;;;;;;5.07;63.93;98245.16;105772;1279;99291;-69
2022/02/22 09:53:01;;;;;;;18.00;4.00;;;;;;;5.01;64.20;98246.06;105839;1279;99264;-69
2022/02/22 09:55:31;;;;;;;11.30;4.10;;;;;;;4.99;64.42;98246.88;105878;1279;114067;-68
2022/02/22 09:58:02;;;;;;;11.60;3.10;;;;;;;5.00;64.48;98248.09;105824;1279;99325;-70
2022/02/22 10:00:32;;;;;;;10.40;3.30;;;;;;;5.00;64.48;98258.05;105836;1278;108066;-70
2022/02/22 10:03:16;;;;;;;14.00;3.60;;;;;;;5.01;64.38;98258.37;105845;1279;99331;-69
2022/02/22 10:05:59;;;;;;;11.50;3.90;;;;;;;5.00;64.49;98258.98;105791;1280;99203;-69
2022/02/22 10:08:30;;;;;;;10.10;3.40;;;;;;;4.99;64.03;98264.61;105776;1279;112871;-69
2022/02/22 10:11:00;;;;;;;11.80;3.70;;;;;;;4.96;64.26;98267.84;105776;1278;97632;-69
2022/02/22 10:13:29;;;;;;;13.60;3.80;;;;;;;4.94;64.28;98264.44;105734;1279;107702;-70
2022/02/22 10:16:12;;;;;;;13.90;3.60;;;;;;;4.94;64.35;98267.02;105764;1279;99323;-70
2022/02/22 10:18:46;;;;;;;11.50;3.40;;;;;;;4.93;64.12;98269.20;105744;1279;99432;-71
2022/02/22 10:21:17;;;;;;;13.80;3.50;;;;;;;4.92;64.32;98268.89;105963;1279;113954;-70
2022/02/22 10:23:49;;;;;;;9.60;3.50;;;;;;;4.95;64.40;98268.95;105787;1279;99286;-71
2022/02/22 10:26:24;;;;;;;12.90;4.20;;;;;;;4.95;64.11;98271.73;105752;1279;108436;-71
2022/02/22 10:28:55;;;;;;;12.70;4.20;;;;;;;4.94;64.25;98276.21;105693;1279;98350;-71
2022/02/22 10:31:35;;;;;;;15.40;4.50;;;;;;;4.94;64.29;98280.77;105595;1279;99709;-70
2022/02/22 10:34:03;;;;;;;15.30;4.30;;;;;;;4.97;64.31;98276.86;105696;1279;112985;-72
2022/02/22 10:36:49;;;;;;;12.50;4.00;;;;;;;5.03;64.23;98282.50;105759;1279;99355;-73
2022/02/22 10:39:20;;;;;;;11.10;3.10;;;;;;;5.05;63.93;98289.19;105765;1279;108876;-70
2022/02/22 10:41:53;;;;;;;14.60;4.80;;;;;;;5.06;64.00;98285.13;105754;1279;99109;-70
2022/02/22 10:44:35;;;;;;;10.70;3.10;;;;;;;5.08;64.24;98290.59;105739;1279;99387;-70
2022/02/22 10:47:20;;;;;;;14.20;3.90;;;;;;;5.11;64.35;98287.08;105878;1279;112736;-70
2022/02/22 10:49:49;;;;;;;15.20;3.30;;;;;;;5.15;64.28;98286.14;105734;1280;99230;-72
2022/02/22 10:52:30;;;;;;;12.50;3.50;;;;;;;5.16;64.35;98290.82;105933;1279;108320;-71
2022/02/22 10:55:01;;;;;;;12.00;3.30;;;;;;;5.10;64.26;98288.59;105802;1279;99404;-69
2022/02/22 10:57:35;;;;;;;13.00;4.10;;;;;;;5.03;64.42;98291.27;105805;1279;99233;-70
2022/02/22 11:00:07;;;;;;;13.20;3.60;;;;;;;5.00;64.44;98288.81;105741;1279;112769;-70
2022/02/22 11:02:35;;;;;;;12.80;3.90;;;;;;;5.05;64.46;98294.85;105802;1278;99307;-70
2022/02/22 11:05:28;;;;;;;15.10;4.30;;;;;;;5.10;64.37;98297.87;105851;1279;107628;-71
2022/02/22 11:07:56;;;;;;;13.80;4.40;;;;;;;5.15;64.40;98299.67;105856;1279;99338;-71
2022/02/22 11:10:31;;;;;;;17.10;4.70;;;;;;;5.22;64.53;98306.28;105802;1279;97352;-71
2022/02/22 11:13:01;;;;;;;12.80;3.70;;;;;;;5.28;64.45;98307.33;105613;1279;112857;-71
2022/02/22 11:15:39;;;;;;;16.40;4.20;;;;;;;5.30;64.45;98304.17;105829;1279;99375;-70
2022/02/22 11:18:22;;;;;;;18.20;4.50;;;;;;;5.33;64.49;98302.03;105765;1279;107804;-68
2022/02/22 11:21:07;;;;;;;17.90;5.10;;;;;;;5.34;64.39;98304.61;105798;1279;99833;-69
2022/02/22 11:23:37;;;;;;;15.40;4.50;;;;;;;5.34;64.45;98308.15;105754;1279;99234;-68
2022/02/22 11:26:09;;;;;;;16.50;5.00;;;;;;;5.34;64.41;98319.42;105757;1279;112631;-72
2022/02/22 11:29:00;;;;;;;14.80;4.80;;;;;;;5.31;64.30;98322.41;105869;1279;98979;-70
2022/02/22 11:31:31;;;;;;;14.70;4.40;;;;;;;5.27;64.33;98327.42;105722;1279;107802;-71
2022/02/22 11:34:02;;;;;;;14.20;4.70;;;;;;;5.24;64.26;98328.67;105775;1279;99277;-69
2022/02/22 11:36:39;;;;;;;16.90;4.50;;;;;;;5.23;64.37;98329.77;105807;1279;99230;-71
2022/02/22 11:39:20;;;;;;;11.70;4.20;;;;;;;5.25;64.34;98331.26;105895;1279;112479;-69